sensor_id;sensor_type;location;lat;lon;timestamp;temperature;humidity
81161;DHT22;70637;48.514;14.500;2024-03-23T00:55:42;28.90;35.50
81161;DHT22;70637;48.514;14.500;2024-03-23T00:58:08;28.90;35.50
81161;DHT22;70637;48.514;14.500;2024-03-23T01:00:33;28.90;35.60
81161;DHT22;70637;48.514;14.500;2024-03-23T01:02:59;28.90;35.50
81161;DHT22;70637;48.514;14.500;2024-03-23T01:05:25;28.90;35.60
81161;DHT22;70637;48.514;14.500;2024-03-23T01:07:50;28.90;35.60
81161;DHT22;70637;48.514;14.500;2024-03-23T01:10:16;28.90;35.60
81161;DHT22;70637;48.514;14.500;2024-03-23T01:12:42;28.80;35.60
81161;DHT22;70637;48.514;14.500;2024-03-23T01:15:08;28.80;35.60
81161;DHT22;70637;48.514;14.500;2024-03-23T01:17:34;28.80;35.60
81161;DHT22;70637;48.514;14.500;2024-03-23T01:19:59;28.80;35.60
81161;DHT22;70637;48.514;14.500;2024-03-23T01:22:25;28.80;35.70
81161;DHT22;70637;48.514;14.500;2024-03-23T01:24:51;28.80;35.70
81161;DHT22;70637;48.514;14.500;2024-03-23T01:27:16;28.80;35.60
81161;DHT22;70637;48.514;14.500;2024-03-23T01:29:42;28.80;35.70
81161;DHT22;70637;48.514;14.500;2024-03-23T01:32:08;28.80;35.70
81161;DHT22;70637;48.514;14.500;2024-03-23T01:34:33;28.80;35.70
81161;DHT22;70637;48.514;14.500;2024-03-23T01:36:59;28.80;35.70
81161;DHT22;70637;48.514;14.500;2024-03-23T01:39:25;28.80;35.80
81161;DHT22;70637;48.514;14.500;2024-03-23T01:41:51;28.80;35.80
81161;DHT22;70637;48.514;14.500;2024-03-23T01:44:16;28.70;35.70
81161;DHT22;70637;48.514;14.500;2024-03-23T01:46:43;28.70;35.70
81161;DHT22;70637;48.514;14.500;2024-03-23T01:49:10;28.70;35.70
81161;DHT22;70637;48.514;14.500;2024-03-23T01:51:36;28.70;35.70
81161;DHT22;70637;48.514;14.500;2024-03-23T01:54:03;28.70;35.80
81161;DHT22;70637;48.514;14.500;2024-03-23T01:56:32;28.70;35.70
81161;DHT22;70637;48.514;14.500;2024-03-23T01:59:03;28.70;35.80
81161;DHT22;70637;48.514;14.500;2024-03-23T02:01:29;28.70;35.70
81161;DHT22;70637;48.514;14.500;2024-03-23T02:03:55;28.70;35.70
81161;DHT22;70637;48.514;14.500;2024-03-23T02:06:21;28.70;35.80
81161;DHT22;70637;48.514;14.500;2024-03-23T02:08:48;28.70;35.90
81161;DHT22;70637;48.514;14.500;2024-03-23T02:11:14;28.70;35.90
81161;DHT22;70637;48.514;14.500;2024-03-23T02:13:39;28.60;35.80
81161;DHT22;70637;48.514;14.500;2024-03-23T02:16:05;28.60;35.80
81161;DHT22;70637;48.514;14.500;2024-03-23T02:18:32;28.60;35.80
81161;DHT22;70637;48.514;14.500;2024-03-23T02:20:58;28.60;35.80
81161;DHT22;70637;48.514;14.500;2024-03-23T02:23:23;28.60;35.90
81161;DHT22;70637;48.514;14.500;2024-03-23T02:25:50;28.60;35.90
81161;DHT22;70637;48.514;14.500;2024-03-23T02:28:16;28.60;35.90
81161;DHT22;70637;48.514;14.500;2024-03-23T02:30:42;28.60;35.90
81161;DHT22;70637;48.514;14.500;2024-03-23T02:33:08;28.60;35.90
81161;DHT22;70637;48.514;14.500;2024-03-23T02:35:34;28.60;35.90
81161;DHT22;70637;48.514;14.500;2024-03-23T02:38:00;28.60;35.90
81161;DHT22;70637;48.514;14.500;2024-03-23T02:40:26;28.60;35.90
81161;DHT22;70637;48.514;14.500;2024-03-23T02:42:52;28.50;35.90
81161;DHT22;70637;48.514;14.500;2024-03-23T02:45:18;28.60;36.00
81161;DHT22;70637;48.514;14.500;2024-03-23T02:47:43;28.60;35.90
81161;DHT22;70637;48.514;14.500;2024-03-23T02:50:09;28.50;35.90
81161;DHT22;70637;48.514;14.500;2024-03-23T02:52:36;28.60;36.00
81161;DHT22;70637;48.514;14.500;2024-03-23T02:55:01;28.60;35.90
81161;DHT22;70637;48.514;14.500;2024-03-23T02:57:27;28.60;36.00
81161;DHT22;70637;48.514;14.500;2024-03-23T02:59:53;28.60;36.00
81161;DHT22;70637;48.514;14.500;2024-03-23T03:02:20;28.60;36.00
81161;DHT22;70637;48.514;14.500;2024-03-23T03:04:46;28.50;36.00
81161;DHT22;70637;48.514;14.500;2024-03-23T03:07:11;28.50;35.90
81161;DHT22;70637;48.514;14.500;2024-03-23T03:09:37;28.60;36.00
81161;DHT22;70637;48.514;14.500;2024-03-23T03:12:07;28.50;35.90
81161;DHT22;70637;48.514;14.500;2024-03-23T03:14:36;28.50;35.90
81161;DHT22;70637;48.514;14.500;2024-03-23T03:17:02;28.50;36.00
81161;DHT22;70637;48.514;14.500;2024-03-23T03:19:29;28.50;35.90
81161;DHT22;70637;48.514;14.500;2024-03-23T03:21:55;28.50;35.90
81161;DHT22;70637;48.514;14.500;2024-03-23T03:24:21;28.50;36.00
81161;DHT22;70637;48.514;14.500;2024-03-23T03:26:47;28.50;36.00
81161;DHT22;70637;48.514;14.500;2024-03-23T03:29:12;28.50;36.00
81161;DHT22;70637;48.514;14.500;2024-03-23T03:31:39;28.50;36.00
81161;DHT22;70637;48.514;14.500;2024-03-23T03:34:04;28.50;36.00
81161;DHT22;70637;48.514;14.500;2024-03-23T03:36:30;28.50;36.00
81161;DHT22;70637;48.514;14.500;2024-03-23T03:38:56;28.40;36.00
81161;DHT22;70637;48.514;14.500;2024-03-23T03:41:21;28.40;35.90
81161;DHT22;70637;48.514;14.500;2024-03-23T03:43:47;28.40;36.00
81161;DHT22;70637;48.514;14.500;2024-03-23T03:46:13;28.40;36.00
81161;DHT22;70637;48.514;14.500;2024-03-23T03:48:38;28.50;36.00
81161;DHT22;70637;48.514;14.500;2024-03-23T03:51:04;28.40;36.00
81161;DHT22;70637;48.514;14.500;2024-03-23T03:53:30;28.50;36.10
81161;DHT22;70637;48.514;14.500;2024-03-23T03:55:56;28.50;36.10
81161;DHT22;70637;48.514;14.500;2024-03-23T03:58:22;28.40;36.10
81161;DHT22;70637;48.514;14.500;2024-03-23T04:00:48;28.50;36.10
81161;DHT22;70637;48.514;14.500;2024-03-23T04:03:13;28.40;36.00
81161;DHT22;70637;48.514;14.500;2024-03-23T04:05:39;28.40;36.00
81161;DHT22;70637;48.514;14.500;2024-03-23T04:08:06;28.40;36.10
81161;DHT22;70637;48.514;14.500;2024-03-23T04:10:32;28.40;36.00
81161;DHT22;70637;48.514;14.500;2024-03-23T04:12:58;28.40;36.10
81161;DHT22;70637;48.514;14.500;2024-03-23T04:15:23;28.40;36.10
81161;DHT22;70637;48.514;14.500;2024-03-23T04:17:49;28.40;36.10
81161;DHT22;70637;48.514;14.500;2024-03-23T04:20:15;28.40;36.10
81161;DHT22;70637;48.514;14.500;2024-03-23T04:22:43;28.40;36.10
81161;DHT22;70637;48.514;14.500;2024-03-23T04:25:08;28.40;36.10
81161;DHT22;70637;48.514;14.500;2024-03-23T04:27:39;28.40;36.10
81161;DHT22;70637;48.514;14.500;2024-03-23T04:30:05;28.40;36.20
81161;DHT22;70637;48.514;14.500;2024-03-23T04:32:36;28.40;36.10
81161;DHT22;70637;48.514;14.500;2024-03-23T04:35:01;28.40;36.20
81161;DHT22;70637;48.514;14.500;2024-03-23T04:37:34;28.40;36.20
81161;DHT22;70637;48.514;14.500;2024-03-23T04:40:00;28.40;36.20
81161;DHT22;70637;48.514;14.500;2024-03-23T04:42:30;28.30;36.10
81161;DHT22;70637;48.514;14.500;2024-03-23T04:44:56;28.40;36.20
81161;DHT22;70637;48.514;14.500;2024-03-23T04:47:22;28.30;36.10
81161;DHT22;70637;48.514;14.500;2024-03-23T04:49:48;28.40;36.30
81161;DHT22;70637;48.514;14.500;2024-03-23T04:52:14;28.40;36.30
81161;DHT22;70637;48.514;14.500;2024-03-23T04:54:39;28.30;36.20
81161;DHT22;70637;48.514;14.500;2024-03-23T04:57:06;28.40;36.30
81161;DHT22;70637;48.514;14.500;2024-03-23T04:59:32;28.30;36.20
81161;DHT22;70637;48.514;14.500;2024-03-23T05:01:58;28.40;36.30
81161;DHT22;70637;48.514;14.500;2024-03-23T05:04:25;28.40;36.30
81161;DHT22;70637;48.514;14.500;2024-03-23T05:06:51;28.40;36.30
81161;DHT22;70637;48.514;14.500;2024-03-23T05:09:16;28.40;36.30
81161;DHT22;70637;48.514;14.500;2024-03-23T05:11:42;28.30;36.30
81161;DHT22;70637;48.514;14.500;2024-03-23T05:14:08;28.30;36.30
81161;DHT22;70637;48.514;14.500;2024-03-23T05:16:33;28.30;36.30
81161;DHT22;70637;48.514;14.500;2024-03-23T05:18:59;28.30;36.30
81161;DHT22;70637;48.514;14.500;2024-03-23T05:21:26;28.30;36.20
81161;DHT22;70637;48.514;14.500;2024-03-23T05:23:54;28.30;36.30
81161;DHT22;70637;48.514;14.500;2024-03-23T05:26:19;28.30;36.30
81161;DHT22;70637;48.514;14.500;2024-03-23T05:28:45;28.30;36.30
81161;DHT22;70637;48.514;14.500;2024-03-23T05:31:11;28.30;36.30
81161;DHT22;70637;48.514;14.500;2024-03-23T05:33:37;28.30;36.30
81161;DHT22;70637;48.514;14.500;2024-03-23T05:36:05;28.30;36.30
81161;DHT22;70637;48.514;14.500;2024-03-23T05:38:31;28.30;36.30
81161;DHT22;70637;48.514;14.500;2024-03-23T05:41:00;28.30;36.30
81161;DHT22;70637;48.514;14.500;2024-03-23T05:43:27;28.30;36.30
81161;DHT22;70637;48.514;14.500;2024-03-23T05:45:58;28.30;36.30
81161;DHT22;70637;48.514;14.500;2024-03-23T05:48:26;28.30;36.30
81161;DHT22;70637;48.514;14.500;2024-03-23T05:50:52;28.30;36.20
81161;DHT22;70637;48.514;14.500;2024-03-23T05:53:19;28.30;36.30
81161;DHT22;70637;48.514;14.500;2024-03-23T05:55:47;28.30;36.30
81161;DHT22;70637;48.514;14.500;2024-03-23T05:58:17;28.30;36.30
81161;DHT22;70637;48.514;14.500;2024-03-23T06:00:43;28.30;36.20
81161;DHT22;70637;48.514;14.500;2024-03-23T06:03:09;28.30;36.30
81161;DHT22;70637;48.514;14.500;2024-03-23T06:05:35;28.30;36.30
81161;DHT22;70637;48.514;14.500;2024-03-23T06:08:01;28.30;36.20
81161;DHT22;70637;48.514;14.500;2024-03-23T06:10:28;28.30;36.30
81161;DHT22;70637;48.514;14.500;2024-03-23T06:12:53;28.30;36.30
81161;DHT22;70637;48.514;14.500;2024-03-23T06:15:19;28.30;36.30
81161;DHT22;70637;48.514;14.500;2024-03-23T06:17:45;28.30;36.30
81161;DHT22;70637;48.514;14.500;2024-03-23T06:20:11;28.30;36.30
81161;DHT22;70637;48.514;14.500;2024-03-23T06:22:38;28.30;36.20
81161;DHT22;70637;48.514;14.500;2024-03-23T06:25:04;28.30;37.30
81161;DHT22;70637;48.514;14.500;2024-03-23T06:27:30;28.20;36.10
81161;DHT22;70637;48.514;14.500;2024-03-23T06:29:57;28.30;36.30
81161;DHT22;70637;48.514;14.500;2024-03-23T06:32:23;28.30;36.30
81161;DHT22;70637;48.514;14.500;2024-03-23T06:34:49;28.30;36.30
81161;DHT22;70637;48.514;14.500;2024-03-23T06:37:14;28.30;36.30
81161;DHT22;70637;48.514;14.500;2024-03-23T06:39:40;28.30;36.30
81161;DHT22;70637;48.514;14.500;2024-03-23T06:42:06;28.30;36.30
81161;DHT22;70637;48.514;14.500;2024-03-23T06:44:31;28.30;36.30
81161;DHT22;70637;48.514;14.500;2024-03-23T06:46:57;28.30;36.30
81161;DHT22;70637;48.514;14.500;2024-03-23T06:49:23;28.30;36.30
81161;DHT22;70637;48.514;14.500;2024-03-23T06:51:49;28.30;36.30
81161;DHT22;70637;48.514;14.500;2024-03-23T06:54:18;28.30;36.30
81161;DHT22;70637;48.514;14.500;2024-03-23T06:56:44;28.20;36.20
81161;DHT22;70637;48.514;14.500;2024-03-23T06:59:10;28.30;36.30
81161;DHT22;70637;48.514;14.500;2024-03-23T07:01:35;28.30;36.30
81161;DHT22;70637;48.514;14.500;2024-03-23T07:04:01;28.30;36.30
81161;DHT22;70637;48.514;14.500;2024-03-23T07:06:28;28.20;36.20
81161;DHT22;70637;48.514;14.500;2024-03-23T07:08:53;28.20;36.30
81161;DHT22;70637;48.514;14.500;2024-03-23T07:11:23;28.20;36.20
81161;DHT22;70637;48.514;14.500;2024-03-23T07:13:52;28.30;36.30
81161;DHT22;70637;48.514;14.500;2024-03-23T07:16:22;28.30;36.30
81161;DHT22;70637;48.514;14.500;2024-03-23T07:18:49;28.20;36.30
81161;DHT22;70637;48.514;14.500;2024-03-23T07:21:15;28.20;36.40
81161;DHT22;70637;48.514;14.500;2024-03-23T07:23:44;28.20;36.40
81161;DHT22;70637;48.514;14.500;2024-03-23T07:26:10;28.20;36.40
81161;DHT22;70637;48.514;14.500;2024-03-23T07:28:36;28.20;36.50
81161;DHT22;70637;48.514;14.500;2024-03-23T07:33:28;28.20;36.60
81161;DHT22;70637;48.514;14.500;2024-03-23T07:35:54;28.20;36.70
81161;DHT22;70637;48.514;14.500;2024-03-23T07:38:20;28.20;36.70
81161;DHT22;70637;48.514;14.500;2024-03-23T07:40:45;28.20;36.80
81161;DHT22;70637;48.514;14.500;2024-03-23T07:43:11;28.20;36.80
81161;DHT22;70637;48.514;14.500;2024-03-23T07:45:37;28.20;36.80
81161;DHT22;70637;48.514;14.500;2024-03-23T07:48:04;28.20;36.90
81161;DHT22;70637;48.514;14.500;2024-03-23T07:50:29;28.20;37.00
81161;DHT22;70637;48.514;14.500;2024-03-23T07:52:55;28.20;37.10
81161;DHT22;70637;48.514;14.500;2024-03-23T07:55:21;28.20;37.10
81161;DHT22;70637;48.514;14.500;2024-03-23T07:57:47;28.20;37.10
81161;DHT22;70637;48.514;14.500;2024-03-23T08:00:13;28.20;37.10
81161;DHT22;70637;48.514;14.500;2024-03-23T08:02:39;28.20;37.10
81161;DHT22;70637;48.514;14.500;2024-03-23T13:06:03;28.20;37.10
81161;DHT22;70637;48.514;14.500;2024-03-23T13:08:33;28.20;37.10
81161;DHT22;70637;48.514;14.500;2024-03-23T13:10:58;28.20;37.10
81161;DHT22;70637;48.514;14.500;2024-03-23T13:13:24;28.20;37.10
81161;DHT22;70637;48.514;14.500;2024-03-23T13:15:50;28.20;37.20
81161;DHT22;70637;48.514;14.500;2024-03-23T13:18:16;28.20;37.10
81161;DHT22;70637;48.514;14.500;2024-03-23T13:20:42;28.20;37.10
81161;DHT22;70637;48.514;14.500;2024-03-23T13:23:07;28.20;37.20
81161;DHT22;70637;48.514;14.500;2024-03-23T13:25:34;28.20;37.10
81161;DHT22;70637;48.514;14.500;2024-03-23T13:27:59;28.20;37.10
81161;DHT22;70637;48.514;14.500;2024-03-23T13:30:26;28.20;37.10
81161;DHT22;70637;48.514;14.500;2024-03-23T13:32:52;28.20;37.10
81161;DHT22;70637;48.514;14.500;2024-03-23T13:35:18;28.20;37.10
81161;DHT22;70637;48.514;14.500;2024-03-23T13:37:43;28.20;37.10
81161;DHT22;70637;48.514;14.500;2024-03-23T13:40:09;28.20;37.10
81161;DHT22;70637;48.514;14.500;2024-03-23T13:42:35;28.20;37.00
81161;DHT22;70637;48.514;14.500;2024-03-23T13:45:01;28.20;37.10
81161;DHT22;70637;48.514;14.500;2024-03-23T13:47:26;28.20;37.10
81161;DHT22;70637;48.514;14.500;2024-03-23T13:49:53;28.20;37.10
81161;DHT22;70637;48.514;14.500;2024-03-23T13:52:19;28.20;37.10
81161;DHT22;70637;48.514;14.500;2024-03-23T13:54:48;28.20;37.10
81161;DHT22;70637;48.514;14.500;2024-03-23T13:57:14;28.20;37.10
81161;DHT22;70637;48.514;14.500;2024-03-23T13:59:40;28.20;37.10
81161;DHT22;70637;48.514;14.500;2024-03-23T14:02:05;28.20;37.10
81161;DHT22;70637;48.514;14.500;2024-03-23T14:04:31;28.20;37.10
81161;DHT22;70637;48.514;14.500;2024-03-23T14:06:57;28.20;37.10
81161;DHT22;70637;48.514;14.500;2024-03-23T14:09:23;28.20;37.10
81161;DHT22;70637;48.514;14.500;2024-03-23T14:11:51;28.20;37.10
81161;DHT22;70637;48.514;14.500;2024-03-23T14:14:17;28.20;37.10
81161;DHT22;70637;48.514;14.500;2024-03-23T14:16:43;28.20;37.10
81161;DHT22;70637;48.514;14.500;2024-03-23T14:19:09;28.20;37.10
81161;DHT22;70637;48.514;14.500;2024-03-23T14:21:35;28.20;37.10
81161;DHT22;70637;48.514;14.500;2024-03-23T14:24:01;28.20;37.10
81161;DHT22;70637;48.514;14.500;2024-03-23T14:26:27;28.20;37.10
81161;DHT22;70637;48.514;14.500;2024-03-23T14:28:53;28.20;37.10
81161;DHT22;70637;48.514;14.500;2024-03-23T14:31:19;28.20;37.10
81161;DHT22;70637;48.514;14.500;2024-03-23T14:33:45;28.20;37.10
81161;DHT22;70637;48.514;14.500;2024-03-23T14:36:16;28.20;37.10
81161;DHT22;70637;48.514;14.500;2024-03-23T14:38:47;28.20;37.10
81161;DHT22;70637;48.514;14.500;2024-03-23T14:41:12;28.20;37.10
81161;DHT22;70637;48.514;14.500;2024-03-23T14:43:38;28.20;37.10
81161;DHT22;70637;48.514;14.500;2024-03-23T14:46:14;28.20;37.10
81161;DHT22;70637;48.514;14.500;2024-03-23T14:48:41;28.20;37.20
81161;DHT22;70637;48.514;14.500;2024-03-23T14:51:08;28.20;37.10
81161;DHT22;70637;48.514;14.500;2024-03-23T14:53:39;28.20;37.10
81161;DHT22;70637;48.514;14.500;2024-03-23T14:56:08;28.20;37.10
81161;DHT22;70637;48.514;14.500;2024-03-23T14:58:37;28.20;37.10
81161;DHT22;70637;48.514;14.500;2024-03-23T15:01:04;28.20;37.20
81161;DHT22;70637;48.514;14.500;2024-03-23T15:03:30;28.20;37.10
81161;DHT22;70637;48.514;14.500;2024-03-23T15:05:57;28.20;37.10
81161;DHT22;70637;48.514;14.500;2024-03-23T15:08:23;28.20;37.20
81161;DHT22;70637;48.514;14.500;2024-03-23T15:10:49;28.20;37.20
81161;DHT22;70637;48.514;14.500;2024-03-23T15:13:15;28.20;37.20
81161;DHT22;70637;48.514;14.500;2024-03-23T15:15:41;28.20;37.20
81161;DHT22;70637;48.514;14.500;2024-03-23T15:18:12;28.20;37.20
81161;DHT22;70637;48.514;14.500;2024-03-23T15:21:13;28.20;37.20
81161;DHT22;70637;48.514;14.500;2024-03-23T15:23:33;28.20;37.10
81161;DHT22;70637;48.514;14.500;2024-03-23T15:26:02;28.20;37.20
81161;DHT22;70637;48.514;14.500;2024-03-23T15:28:28;28.20;37.20
81161;DHT22;70637;48.514;14.500;2024-03-23T15:31:08;28.20;37.20
81161;DHT22;70637;48.514;14.500;2024-03-23T15:33:36;28.20;37.10
81161;DHT22;70637;48.514;14.500;2024-03-23T15:36:03;28.20;37.20
81161;DHT22;70637;48.514;14.500;2024-03-23T15:38:31;28.20;37.20
81161;DHT22;70637;48.514;14.500;2024-03-23T15:40:57;28.20;37.10
81161;DHT22;70637;48.514;14.500;2024-03-23T15:43:22;28.20;37.20
81161;DHT22;70637;48.514;14.500;2024-03-23T15:45:55;28.20;37.20
81161;DHT22;70637;48.514;14.500;2024-03-23T15:48:21;28.20;37.20
81161;DHT22;70637;48.514;14.500;2024-03-23T15:50:54;28.20;37.20
81161;DHT22;70637;48.514;14.500;2024-03-23T15:53:21;28.20;37.10
81161;DHT22;70637;48.514;14.500;2024-03-23T15:56:07;28.20;37.20
81161;DHT22;70637;48.514;14.500;2024-03-23T15:58:33;28.20;37.20
81161;DHT22;70637;48.514;14.500;2024-03-23T16:01:08;28.20;37.10
81161;DHT22;70637;48.514;14.500;2024-03-23T16:03:37;28.20;37.20
81161;DHT22;70637;48.514;14.500;2024-03-23T16:06:07;28.20;37.10
81161;DHT22;70637;48.514;14.500;2024-03-23T16:08:33;28.20;37.20
81161;DHT22;70637;48.514;14.500;2024-03-23T16:11:00;28.20;37.20
81161;DHT22;70637;48.514;14.500;2024-03-23T16:13:26;28.20;37.20
81161;DHT22;70637;48.514;14.500;2024-03-23T16:15:58;28.20;37.20
81161;DHT22;70637;48.514;14.500;2024-03-23T16:18:24;28.20;37.20
81161;DHT22;70637;48.514;14.500;2024-03-23T16:20:59;28.20;37.10
81161;DHT22;70637;48.514;14.500;2024-03-23T16:23:25;28.20;37.20
81161;DHT22;70637;48.514;14.500;2024-03-23T16:25:52;28.20;37.20
81161;DHT22;70637;48.514;14.500;2024-03-23T16:28:28;28.20;37.10
81161;DHT22;70637;48.514;14.500;2024-03-23T16:31:07;28.20;37.20
81161;DHT22;70637;48.514;14.500;2024-03-23T16:33:33;28.20;37.10
81161;DHT22;70637;48.514;14.500;2024-03-23T16:36:01;28.20;37.20
81161;DHT22;70637;48.514;14.500;2024-03-23T16:38:28;28.20;37.10
81161;DHT22;70637;48.514;14.500;2024-03-23T16:40:58;28.20;37.20
81161;DHT22;70637;48.514;14.500;2024-03-23T16:43:24;28.20;37.20
81161;DHT22;70637;48.514;14.500;2024-03-23T16:45:55;28.20;37.10
81161;DHT22;70637;48.514;14.500;2024-03-23T16:48:24;28.20;37.20
81161;DHT22;70637;48.514;14.500;2024-03-23T16:50:51;28.20;37.20
81161;DHT22;70637;48.514;14.500;2024-03-23T16:53:17;28.20;37.20
81161;DHT22;70637;48.514;14.500;2024-03-23T16:55:42;28.20;37.20
81161;DHT22;70637;48.514;14.500;2024-03-23T16:58:08;28.30;37.40
81161;DHT22;70637;48.514;14.500;2024-03-23T17:00:35;28.20;37.20
81161;DHT22;70637;48.514;14.500;2024-03-23T17:03:04;28.20;37.20
81161;DHT22;70637;48.514;14.500;2024-03-23T17:05:39;28.20;37.20
81161;DHT22;70637;48.514;14.500;2024-03-23T17:08:05;28.20;37.20
81161;DHT22;70637;48.514;14.500;2024-03-23T17:10:31;28.20;37.30
81161;DHT22;70637;48.514;14.500;2024-03-23T17:12:58;28.20;37.20
81161;DHT22;70637;48.514;14.500;2024-03-23T17:15:24;28.20;37.20
81161;DHT22;70637;48.514;14.500;2024-03-23T17:17:50;28.30;37.40
81161;DHT22;70637;48.514;14.500;2024-03-23T17:20:15;28.20;37.20
81161;DHT22;70637;48.514;14.500;2024-03-23T17:22:41;28.20;37.20
81161;DHT22;70637;48.514;14.500;2024-03-23T17:25:07;28.20;37.20
81161;DHT22;70637;48.514;14.500;2024-03-23T17:27:36;28.30;37.30
81161;DHT22;70637;48.514;14.500;2024-03-23T17:30:02;28.20;37.20
81161;DHT22;70637;48.514;14.500;2024-03-23T17:32:28;28.20;37.20
81161;DHT22;70637;48.514;14.500;2024-03-23T17:34:54;28.30;37.30
81161;DHT22;70637;48.514;14.500;2024-03-23T17:37:20;28.20;37.20
81161;DHT22;70637;48.514;14.500;2024-03-23T17:39:45;28.20;37.20
81161;DHT22;70637;48.514;14.500;2024-03-23T17:42:11;28.30;37.30
81161;DHT22;70637;48.514;14.500;2024-03-23T17:44:37;28.20;37.20
81161;DHT22;70637;48.514;14.500;2024-03-23T17:47:03;28.20;37.20
81161;DHT22;70637;48.514;14.500;2024-03-23T17:49:29;28.30;37.30
81161;DHT22;70637;48.514;14.500;2024-03-23T17:51:59;28.20;37.20
81161;DHT22;70637;48.514;14.500;2024-03-23T17:54:25;28.20;37.20
81161;DHT22;70637;48.514;14.500;2024-03-23T17:56:52;28.30;37.30
81161;DHT22;70637;48.514;14.500;2024-03-23T17:59:20;28.30;37.30
81161;DHT22;70637;48.514;14.500;2024-03-23T18:01:46;28.30;37.20
81161;DHT22;70637;48.514;14.500;2024-03-23T18:04:12;28.30;37.30
81161;DHT22;70637;48.514;14.500;2024-03-23T18:06:38;28.30;37.20
81161;DHT22;70637;48.514;14.500;2024-03-23T18:09:04;28.30;37.20
81161;DHT22;70637;48.514;14.500;2024-03-23T18:11:30;28.30;37.20
81161;DHT22;70637;48.514;14.500;2024-03-23T18:13:55;28.20;37.10
81161;DHT22;70637;48.514;14.500;2024-03-23T18:16:21;28.30;37.20
81161;DHT22;70637;48.514;14.500;2024-03-23T18:18:47;28.30;37.20
81161;DHT22;70637;48.514;14.500;2024-03-23T18:21:13;28.30;37.10
81161;DHT22;70637;48.514;14.500;2024-03-23T18:23:38;28.30;37.10
81161;DHT22;70637;48.514;14.500;2024-03-23T18:26:04;28.30;37.10
81161;DHT22;70637;48.514;14.500;2024-03-23T18:28:30;28.30;37.10
81161;DHT22;70637;48.514;14.500;2024-03-23T18:31:00;28.30;37.10
81161;DHT22;70637;48.514;14.500;2024-03-23T18:33:32;28.20;37.00
81161;DHT22;70637;48.514;14.500;2024-03-23T18:35:58;28.20;36.90
81161;DHT22;70637;48.514;14.500;2024-03-23T18:38:24;28.30;37.00
81161;DHT22;70637;48.514;14.500;2024-03-23T18:40:49;28.30;37.00
81161;DHT22;70637;48.514;14.500;2024-03-23T18:43:15;28.30;37.10
81161;DHT22;70637;48.514;14.500;2024-03-23T18:45:48;28.20;37.00
81161;DHT22;70637;48.514;14.500;2024-03-23T18:48:13;28.30;37.10
81161;DHT22;70637;48.514;14.500;2024-03-23T18:50:40;28.30;37.10
81161;DHT22;70637;48.514;14.500;2024-03-23T18:53:10;28.30;37.00
81161;DHT22;70637;48.514;14.500;2024-03-23T18:55:40;28.30;37.10
81161;DHT22;70637;48.514;14.500;2024-03-23T18:58:06;28.30;37.00
81161;DHT22;70637;48.514;14.500;2024-03-23T19:00:32;28.30;37.00
81161;DHT22;70637;48.514;14.500;2024-03-23T19:02:59;28.30;37.10
81161;DHT22;70637;48.514;14.500;2024-03-23T19:05:25;28.30;37.00
81161;DHT22;70637;48.514;14.500;2024-03-23T19:07:51;28.30;37.00
81161;DHT22;70637;48.514;14.500;2024-03-23T19:10:17;28.30;37.00
81161;DHT22;70637;48.514;14.500;2024-03-23T19:12:46;28.20;37.00
81161;DHT22;70637;48.514;14.500;2024-03-23T19:15:12;28.30;37.10
81161;DHT22;70637;48.514;14.500;2024-03-23T19:17:38;28.30;37.10
81161;DHT22;70637;48.514;14.500;2024-03-23T19:20:04;28.20;37.00
81161;DHT22;70637;48.514;14.500;2024-03-23T19:22:30;28.30;37.10
81161;DHT22;70637;48.514;14.500;2024-03-23T19:24:56;28.20;37.00
81161;DHT22;70637;48.514;14.500;2024-03-23T19:27:22;28.20;37.00
81161;DHT22;70637;48.514;14.500;2024-03-23T19:29:47;28.20;37.00
81161;DHT22;70637;48.514;14.500;2024-03-23T19:32:13;28.20;37.00
81161;DHT22;70637;48.514;14.500;2024-03-23T19:34:39;28.20;37.10
81161;DHT22;70637;48.514;14.500;2024-03-23T19:37:05;28.20;37.00
81161;DHT22;70637;48.514;14.500;2024-03-23T19:39:30;28.20;37.00
81161;DHT22;70637;48.514;14.500;2024-03-23T19:41:57;28.30;37.10
81161;DHT22;70637;48.514;14.500;2024-03-23T19:44:23;28.20;37.00
81161;DHT22;70637;48.514;14.500;2024-03-23T19:46:49;28.20;37.00
81161;DHT22;70637;48.514;14.500;2024-03-23T19:49:15;28.20;37.10
81161;DHT22;70637;48.514;14.500;2024-03-23T19:51:41;28.30;37.10
81161;DHT22;70637;48.514;14.500;2024-03-23T19:54:07;28.30;37.10
81161;DHT22;70637;48.514;14.500;2024-03-23T19:56:33;28.20;37.00
81161;DHT22;70637;48.514;14.500;2024-03-23T19:58:59;28.20;37.00
81161;DHT22;70637;48.514;14.500;2024-03-23T20:01:25;28.20;37.00
81161;DHT22;70637;48.514;14.500;2024-03-23T20:03:51;28.20;37.10
81161;DHT22;70637;48.514;14.500;2024-03-23T20:06:17;28.20;37.00
81161;DHT22;70637;48.514;14.500;2024-03-23T20:08:44;28.20;37.10
81161;DHT22;70637;48.514;14.500;2024-03-23T20:11:10;28.20;37.10
81161;DHT22;70637;48.514;14.500;2024-03-23T20:13:35;28.20;37.10
81161;DHT22;70637;48.514;14.500;2024-03-23T20:16:01;28.20;37.00
81161;DHT22;70637;48.514;14.500;2024-03-23T20:18:28;28.20;37.00
81161;DHT22;70637;48.514;14.500;2024-03-23T20:20:55;28.20;37.10
81161;DHT22;70637;48.514;14.500;2024-03-23T20:23:22;28.20;37.10
81161;DHT22;70637;48.514;14.500;2024-03-23T20:25:52;28.20;37.10
81161;DHT22;70637;48.514;14.500;2024-03-23T20:28:18;28.20;37.10
81161;DHT22;70637;48.514;14.500;2024-03-23T20:30:54;28.20;37.10
81161;DHT22;70637;48.514;14.500;2024-03-23T20:33:20;28.20;37.10
81161;DHT22;70637;48.514;14.500;2024-03-23T20:35:49;28.20;37.10
81161;DHT22;70637;48.514;14.500;2024-03-23T20:38:16;28.20;37.10
81161;DHT22;70637;48.514;14.500;2024-03-23T20:40:42;28.20;37.10
81161;DHT22;70637;48.514;14.500;2024-03-23T20:43:08;28.20;37.20
81161;DHT22;70637;48.514;14.500;2024-03-23T20:45:35;28.20;37.10
81161;DHT22;70637;48.514;14.500;2024-03-23T20:48:01;28.20;37.70
81161;DHT22;70637;48.514;14.500;2024-03-23T20:50:26;28.20;37.20
81161;DHT22;70637;48.514;14.500;2024-03-23T20:52:52;28.20;37.10
81161;DHT22;70637;48.514;14.500;2024-03-23T20:55:18;28.20;37.10
81161;DHT22;70637;48.514;14.500;2024-03-23T20:57:43;28.20;38.20
81161;DHT22;70637;48.514;14.500;2024-03-23T21:00:10;28.20;37.10
81161;DHT22;70637;48.514;14.500;2024-03-23T21:02:35;28.20;37.10
81161;DHT22;70637;48.514;14.500;2024-03-23T21:05:01;28.30;37.20
81161;DHT22;70637;48.514;14.500;2024-03-23T21:07:27;28.20;37.10
81161;DHT22;70637;48.514;14.500;2024-03-23T21:09:54;28.20;37.10